WAT46 SKRG-MROC
Flight info
| Callsign | WAT46 |
|---|---|
| Flight time | N/A |
| Altitude | 32000 |
| Route | TBG DCT ISEBA CUARE4I |
| Aircraft | E135/M-SDFGIRW/S |
Departure
| Time | 2026-04-28 02:25 |
|---|---|
| Airport | Jose Maria Córdova International Airport (SKRG) |
Arrival
| Time | N/A |
|---|---|
| Airport | Juan Santamaría International Airport (MROC) |
| Time | Latitude | Longitude | Altitude | Speed | Heading |
|---|---|---|---|---|---|
| 2026-04-28 02:00 | 6.17032 | -75.42715 | 7000 ft | 0 kts | 306° |
| 2026-04-28 02:15 | 6.17032 | -75.42716 | 7000 ft | 0 kts | 306° |
| 2026-04-28 02:16 | 6.17031 | -75.42714 | 7000 ft | 2 kts | 306° |
| 2026-04-28 02:16 | 6.17022 | -75.42702 | 7000 ft | 2 kts | 306° |
| 2026-04-28 02:16 | 6.17013 | -75.42690 | 6999 ft | 2 kts | 306° |
| 2026-04-28 02:17 | 6.17002 | -75.42680 | 6999 ft | 2 kts | 342° |
| 2026-04-28 02:17 | 6.16988 | -75.42680 | 6999 ft | 2 kts | 21° |
| 2026-04-28 02:17 | 6.16980 | -75.42685 | 6999 ft | 0 kts | 38° |
| 2026-04-28 02:19 | 6.16980 | -75.42684 | 6999 ft | 0 kts | 38° |
| 2026-04-28 02:19 | 6.16993 | -75.42675 | 6999 ft | 3 kts | 38° |
| 2026-04-28 02:19 | 6.17015 | -75.42657 | 6999 ft | 5 kts | 38° |
| 2026-04-28 02:20 | 6.17040 | -75.42622 | 6999 ft | 7 kts | 78° |
| 2026-04-28 02:20 | 6.17013 | -75.42568 | 6999 ft | 11 kts | 153° |
| 2026-04-28 02:20 | 6.16931 | -75.42523 | 6997 ft | 15 kts | 150° |
| 2026-04-28 02:20 | 6.16821 | -75.42484 | 6994 ft | 17 kts | 179° |
| 2026-04-28 02:21 | 6.16686 | -75.42484 | 6989 ft | 20 kts | 179° |
| 2026-04-28 02:21 | 6.16535 | -75.42484 | 6985 ft | 22 kts | 179° |
| 2026-04-28 02:21 | 6.16367 | -75.42483 | 6981 ft | 25 kts | 180° |
| 2026-04-28 02:21 | 6.16186 | -75.42481 | 6978 ft | 26 kts | 180° |
| 2026-04-28 02:22 | 6.15995 | -75.42481 | 6974 ft | 28 kts | 179° |
| 2026-04-28 02:22 | 6.15795 | -75.42479 | 6972 ft | 28 kts | 179° |
| 2026-04-28 02:22 | 6.15592 | -75.42477 | 6971 ft | 29 kts | 180° |
| 2026-04-28 02:22 | 6.15386 | -75.42477 | 6970 ft | 29 kts | 179° |
| 2026-04-28 02:23 | 6.15179 | -75.42476 | 6969 ft | 29 kts | 180° |
| 2026-04-28 02:23 | 6.14989 | -75.42474 | 6969 ft | 9 kts | 180° |
| 2026-04-28 02:23 | 6.14940 | -75.42475 | 6968 ft | 7 kts | 180° |
| 2026-04-28 02:23 | 6.14896 | -75.42463 | 6969 ft | 6 kts | 132° |
| 2026-04-28 02:24 | 6.14888 | -75.42419 | 6968 ft | 6 kts | 91° |
| 2026-04-28 02:24 | 6.14891 | -75.42372 | 6968 ft | 7 kts | 77° |
| 2026-04-28 02:24 | 6.14927 | -75.42330 | 6968 ft | 9 kts | 30° |
| 2026-04-28 02:24 | 6.14994 | -75.42303 | 6969 ft | 11 kts | 3° |
| 2026-04-28 02:25 | 6.15215 | -75.42301 | 6969 ft | 64 kts | 359° |
| 2026-04-28 02:25 | 6.15891 | -75.42309 | 6973 ft | 126 kts | 0° |
| 2026-04-28 02:25 | 6.16927 | -75.42313 | 7092 ft | 161 kts | 0° |
| 2026-04-28 02:25 | 6.18065 | -75.42358 | 7656 ft | 168 kts | 359° |
| 2026-04-28 02:26 | 6.19255 | -75.42346 | 8187 ft | 179 kts | 0° |
| 2026-04-28 02:26 | 6.20528 | -75.42366 | 8882 ft | 181 kts | 1° |
| 2026-04-28 02:26 | 6.21767 | -75.42345 | 9532 ft | 185 kts | 1° |
| 2026-04-28 02:26 | 6.23098 | -75.42262 | 10017 ft | 197 kts | 8° |
| 2026-04-28 02:27 | 6.24563 | -75.42316 | 10260 ft | 227 kts | 358° |
| 2026-04-28 02:27 | 6.26273 | -75.42361 | 10327 ft | 262 kts | 360° |
| 2026-04-28 02:27 | 6.28211 | -75.42386 | 10486 ft | 289 kts | 0° |
| 2026-04-28 02:27 | 6.30258 | -75.42402 | 11034 ft | 299 kts | 0° |
| 2026-04-28 02:28 | 6.32382 | -75.42419 | 11642 ft | 307 kts | 1° |
| 2026-04-28 02:28 | 6.34583 | -75.42406 | 12045 ft | 321 kts | 2° |
| 2026-04-28 02:28 | 6.36852 | -75.42386 | 12536 ft | 330 kts | 1° |
| 2026-04-28 02:28 | 6.39170 | -75.42364 | 13183 ft | 332 kts | 2° |
| 2026-04-28 02:29 | 6.41495 | -75.42475 | 13770 ft | 337 kts | 348° |
| 2026-04-28 02:29 | 6.42944 | -75.43072 | 14140 ft | 341 kts | 329° |
| 2026-04-28 02:29 | 6.43593 | -75.43535 | 14331 ft | 342 kts | 321° |
| 2026-04-28 02:29 | 6.45718 | -75.46911 | 15245 ft | 348 kts | 300° |
| 2026-04-28 02:30 | 6.47330 | -75.49724 | 15917 ft | 353 kts | 301° |
| 2026-04-28 02:30 | 6.48568 | -75.51865 | 16372 ft | 357 kts | 301° |
| 2026-04-28 02:30 | 6.49815 | -75.54019 | 16882 ft | 358 kts | 301° |
| 2026-04-28 02:30 | 6.51076 | -75.56199 | 17306 ft | 362 kts | 301° |
| 2026-04-28 02:31 | 6.52358 | -75.58413 | 17755 ft | 364 kts | 301° |
| 2026-04-28 02:31 | 6.53631 | -75.60617 | 18174 ft | 367 kts | 301° |
| 2026-04-28 02:31 | 6.54905 | -75.62819 | 18678 ft | 366 kts | 301° |
| 2026-04-28 02:31 | 6.56181 | -75.65026 | 19272 ft | 362 kts | 300° |
| 2026-04-28 02:32 | 6.57436 | -75.67197 | 19745 ft | 362 kts | 300° |
| 2026-04-28 02:32 | 6.58712 | -75.69401 | 20165 ft | 363 kts | 300° |
| 2026-04-28 02:32 | 6.59983 | -75.71595 | 20619 ft | 362 kts | 300° |
| 2026-04-28 02:32 | 6.61248 | -75.73784 | 21122 ft | 360 kts | 300° |
| 2026-04-28 02:33 | 6.62504 | -75.75957 | 21543 ft | 360 kts | 300° |
| 2026-04-28 02:33 | 6.63749 | -75.78112 | 21930 ft | 361 kts | 300° |
| 2026-04-28 02:33 | 6.65007 | -75.80290 | 22358 ft | 360 kts | 300° |
| 2026-04-28 02:33 | 6.66257 | -75.82453 | 22827 ft | 358 kts | 300° |
| 2026-04-28 02:34 | 6.75547 | -75.98528 | 25546 ft | 358 kts | 299° |
| 2026-04-28 02:34 | 6.93128 | -76.29110 | 32192 ft | 358 kts | 297° |
| 2026-04-28 02:34 | 6.94375 | -76.31323 | 32171 ft | 372 kts | 297° |
| 2026-04-28 02:34 | 6.95697 | -76.33642 | 32195 ft | 384 kts | 298° |
| 2026-04-28 02:35 | 6.97048 | -76.36005 | 32159 ft | 396 kts | 298° |
| 2026-04-28 02:35 | 6.97518 | -76.36825 | 32156 ft | 399 kts | 298° |
| 2026-04-28 02:36 | 6.97976 | -76.37623 | 32154 ft | 402 kts | 298° |